Time;durP1;ratioP1;P1;durP2;ratioP2;P2;SDS_P1;SDS_P2;PMS_P1;PMS_P2;Temp;Humidity;BMP_temperature;BMP_pressure;BME280_temperature;BME280_humidity;BME280_pressure;Samples;Min_cycle;Max_cycle;Signal;HPM_P1;HPM_P2
2023/06/12 00:01:49;;;;;;;;;7.67;6.00;;;;;19.11;78.78;100331.44;146635;592;45016;-64
2023/06/12 00:04:59;;;;;;;;;4.67;4.00;;;;;19.11;78.65;100323.56;146644;563;45020;-66
2023/06/12 00:08:05;;;;;;;;;6.00;4.00;;;;;19.11;78.24;100327.06;146640;655;45916;-63
2023/06/12 00:11:12;;;;;;;;;3.00;3.00;;;;;19.19;77.84;100331.50;146644;564;45010;-63
2023/06/12 00:14:35;;;;;;;;;4.67;4.00;;;;;19.21;77.43;100335.03;146643;633;45012;-64
2023/06/12 00:17:35;;;;;;;;;4.33;2.33;;;;;19.17;77.04;100335.87;146646;637;45010;-64
2023/06/12 00:20:42;;;;;;;;;5.00;4.00;;;;;19.11;77.34;100326.19;146645;649;45916;-64
2023/06/12 00:23:56;;;;;;;;;;;;;;;;;;;;;
2023/06/12 00:26:54;;;;;;;;;4.33;3.33;;;;;19.06;77.74;100327.88;146611;604;47012;-67
2023/06/12 00:29:57;;;;;;;;;6.00;4.00;;;;;19.00;78.23;100322.56;146616;567;47030;-64
2023/06/12 00:32:56;;;;;;;;;4.00;4.00;;;;;18.91;79.86;100318.09;146706;572;45023;-64
2023/06/12 00:36:07;;;;;;;;;7.00;7.00;;;;;18.88;79.12;100324.19;146617;607;46016;-64
2023/06/12 00:39:11;;;;;;;;;;;;;;;;;;;;;
2023/06/12 00:42:28;;;;;;;;;4.00;4.00;;;;;18.85;78.09;100323.28;146623;616;47012;-65
2023/06/12 00:45:43;;;;;;;;;7.00;4.00;;;;;18.88;79.06;100315.44;146632;579;46010;-65
2023/06/12 00:48:44;;;;;;;;;4.33;4.33;;;;;18.92;79.07;100306.72;146627;600;46917;-66
2023/06/12 00:51:49;;;;;;;;;5.00;5.00;;;;;18.94;79.36;100310.25;146630;573;46010;-64
2023/06/12 00:55:03;;;;;;;;;6.00;4.50;;;;;18.79;78.22;100274.19;146623;699;46013;-64
2023/06/12 00:58:06;;;;;;;;;5.33;5.00;;;;;18.99;78.88;100299.78;146629;736;47014;-65
2023/06/12 01:01:12;;;;;;;;;4.50;4.50;;;;;19.03;79.10;100301.56;146621;675;46015;-64
2023/06/12 01:04:29;;;;;;;;;4.00;4.00;;;;;19.05;79.45;100298.09;146629;587;46020;-66
2023/06/12 01:08:23;;;;;;;;;4.00;4.00;;;;;19.04;78.34;100296.34;146623;590;46016;-64
2023/06/12 01:11:23;;;;;;;;;5.00;5.00;;;;;19.02;79.71;100294.56;146632;569;46010;-64
2023/06/12 01:14:48;;;;;;;;;7.00;6.00;;;;;18.91;78.44;100274.31;146623;600;46916;-64
2023/06/12 01:17:46;;;;;;;;;4.33;4.33;;;;;19.01;80.07;100292.81;146626;577;46020;-64
2023/06/12 01:21:09;;;;;;;;;4.67;4.67;;;;;18.50;78.69;100208.19;146623;646;46016;-65
2023/06/12 01:24:54;;;;;;;;;5.33;5.00;;;;;19.07;79.19;100296.38;146620;650;47010;-63
2023/06/12 01:28:56;;;;;;;;;4.00;3.67;;;;;19.06;79.05;100294.59;146620;575;46031;-63
2023/06/12 01:32:22;;;;;;;;;5.33;5.00;;;;;18.54;78.94;100206.50;146624;580;47010;-63
2023/06/12 01:35:32;;;;;;;;;6.00;5.00;;;;;19.10;79.93;100304.28;146619;607;46016;-63
2023/06/12 01:38:31;;;;;;;;;3.33;3.33;;;;;19.10;80.17;100301.66;146621;593;47010;-62
2023/06/12 01:41:44;;;;;;;;;5.00;4.00;;;;;19.09;80.16;100299.00;146619;583;46012;-63
2023/06/12 01:44:47;;;;;;;;;5.00;4.00;;;;;17.54;79.81;100050.53;146618;577;46010;-63
2023/06/12 01:47:46;;;;;;;;;5.00;5.00;;;;;19.05;81.32;100294.59;146619;656;46016;-63
2023/06/12 01:50:44;;;;;;;;;5.33;5.00;;;;;19.01;81.32;100285.81;146622;600;46010;-63
2023/06/12 01:54:04;;;;;;;;;5.00;5.00;;;;;18.99;80.39;100287.50;146618;613;46035;-63
2023/06/12 01:57:05;;;;;;;;;7.00;7.00;;;;;18.98;80.76;100283.12;146623;597;46020;-63
2023/06/12 02:00:04;;;;;;;;;5.00;5.00;;;;;19.07;81.10;100288.50;146620;564;46014;-63
2023/06/12 02:03:04;;;;;;;;;3.67;3.67;;;;;19.13;80.99;100291.19;146623;570;46010;-63
2023/06/12 02:05:59;;;;;;;;;5.00;5.00;;;;;19.19;80.58;100285.09;146616;566;46016;-62
2023/06/12 02:09:00;;;;;;;;;3.67;3.67;;;;;19.24;79.22;100299.16;146621;624;47010;-63
2023/06/12 02:12:00;;;;;;;;;5.33;4.00;;;;;19.24;80.24;100304.41;146619;565;46016;-63
2023/06/12 02:14:59;;;;;;;;;4.00;4.00;;;;;19.20;79.45;100310.50;146621;572;46015;-63
2023/06/12 02:18:00;;;;;;;;;4.00;3.00;;;;;19.15;79.59;100305.19;146615;578;46917;-64
2023/06/12 02:20:58;;;;;;;;;3.67;3.33;;;;;19.11;80.35;100302.53;146623;674;46018;-63
2023/06/12 02:23:52;;;;;;;;;5.00;5.00;;;;;19.09;80.66;100310.38;146612;628;47012;-63
2023/06/12 02:26:56;;;;;;;;;4.00;4.00;;;;;19.11;80.48;100303.41;146621;595;46020;-63
2023/06/12 02:29:51;;;;;;;;;6.67;4.67;;;;;19.17;80.84;100301.72;146615;653;46016;-64
2023/06/12 02:32:49;;;;;;;;;6.00;5.00;;;;;19.19;80.54;100305.22;146626;579;46010;-63
2023/06/12 02:35:51;;;;;;;;;6.00;4.00;;;;;19.22;80.67;100314.03;146615;594;47012;-63
2023/06/12 02:39:05;;;;;;;;;5.67;5.33;;;;;16.60;79.57;99867.69;146621;659;46021;-63
2023/06/12 02:42:04;;;;;;;;;7.33;5.33;;;;;19.18;80.25;100316.59;146618;630;46028;-63
2023/06/12 02:44:55;;;;;;;;;8.33;8.33;;;;;19.22;80.88;100326.28;146620;579;46020;-63
2023/06/12 02:47:52;;;;;;;;;8.67;5.33;;;;;19.25;80.52;100326.31;146619;640;47012;-63
2023/06/12 02:50:49;;;;;;;;;6.00;5.00;;;;;19.22;80.65;100321.94;146624;587;46014;-63
2023/06/12 02:53:41;;;;;;;;;4.67;4.00;;;;;19.15;81.30;100325.34;146617;565;46016;-62
2023/06/12 02:56:46;;;;;;;;;6.33;5.33;;;;;19.09;81.93;100333.16;146621;606;46010;-63
2023/06/12 02:59:55;;;;;;;;;7.00;7.00;;;;;19.03;81.37;100330.47;146613;606;46914;-63
2023/06/12 03:03:05;;;;;;;;;;;;;;;;;;;;;
2023/06/12 03:05:59;;;;;;;;;6.67;6.00;;;;;18.99;81.92;100334.81;146619;576;46016;-66
2023/06/12 03:08:54;;;;;;;;;5.75;5.00;;;;;18.99;81.93;100340.06;146621;687;46034;-67
2023/06/12 03:12:12;;;;;;;;;6.33;5.00;;;;;17.56;80.96;100101.22;146617;569;47016;-66
2023/06/12 03:15:14;;;;;;;;;8.00;6.00;;;;;18.92;81.70;100339.13;146623;644;46010;-66
2023/06/12 03:18:10;;;;;;;;;5.33;5.00;;;;;18.93;82.72;100338.25;146618;641;46016;-67
2023/06/12 03:21:07;;;;;;;;;4.00;4.00;;;;;18.93;82.50;100335.63;146622;584;47010;-62
2023/06/12 03:24:13;;;;;;;;;7.33;5.00;;;;;18.94;82.72;100347.03;146619;594;46014;-62
2023/06/12 03:27:24;;;;;;;;;6.33;5.67;;;;;18.37;81.64;100249.16;146614;582;47020;-63
2023/06/12 03:30:29;;;;;;;;;6.00;4.75;;;;;18.98;82.06;100355.84;146617;587;46034;-64
2023/06/12 03:33:37;;;;;;;;;6.00;4.67;;;;;19.00;81.52;100354.97;146640;611;45020;-65
2023/06/12 03:36:37;;;;;;;;;6.00;6.00;;;;;19.04;82.48;100356.78;146642;599;46916;-65
2023/06/12 03:39:45;;;;;;;;;8.25;8.00;;;;;19.05;82.31;100358.53;146640;613;45032;-65
2023/06/12 03:43:02;;;;;;;;;8.00;6.33;;;;;19.06;82.00;100362.03;146642;563;45912;-66
2023/06/12 03:46:04;;;;;;;;;;;;;;;;;;;;;
2023/06/12 03:49:13;;;;;;;;;7.00;6.00;;;;;19.09;82.51;100364.69;146641;598;45912;-65
2023/06/12 03:52:40;;;;;;;;;9.00;6.67;;;;;17.30;81.48;100038.88;146646;570;45010;-66
2023/06/12 03:55:56;;;;;;;;;5.33;5.33;;;;;17.60;81.41;100071.59;146641;602;46911;-66
2023/06/12 03:58:58;;;;;;;;;8.25;7.75;;;;;19.42;82.11;100361.53;146640;607;45020;-67
2023/06/12 04:02:01;;;;;;;;;;;;;;;;;;;;;
2023/06/12 04:05:02;;;;;;;;;8.25;8.25;;;;;19.58;81.90;100352.03;146643;616;45010;-66
2023/06/12 04:07:57;;;;;;;;;8.50;7.00;;;;;19.65;81.94;100351.25;146638;731;45914;-65
2023/06/12 04:10:55;;;;;;;;;6.33;6.00;;;;;19.72;81.51;100347.81;146644;582;45020;-66
2023/06/12 04:14:08;;;;;;;;;8.00;7.33;;;;;19.78;80.80;100354.84;146640;597;45917;-65
2023/06/12 04:17:17;;;;;;;;;10.00;8.00;;;;;19.87;81.64;100351.41;146643;576;45020;-66
2023/06/12 04:20:29;;;;;;;;;9.50;8.50;;;;;20.00;80.99;100355.87;146637;616;45916;-65
2023/06/12 04:23:41;;;;;;;;;11.25;10.00;;;;;20.09;80.91;100345.41;146645;564;45021;-66
2023/06/12 04:26:43;;;;;;;;;8.00;8.00;;;;;20.21;81.58;100349.88;146634;624;45915;-65
2023/06/12 04:29:51;;;;;;;;;13.00;9.00;;;;;18.95;79.63;100117.59;146638;716;47010;-65
2023/06/12 04:32:57;;;;;;;;;8.00;8.00;;;;;20.37;79.01;100350.84;146635;732;46014;-65
2023/06/12 04:36:02;;;;;;;;;9.25;9.00;;;;;20.40;79.23;100340.34;146636;609;48010;-65
2023/06/12 04:38:59;;;;;;;;;11.00;9.00;;;;;20.44;79.50;100358.81;146643;664;45014;-65
2023/06/12 04:41:56;;;;;;;;;8.00;8.00;;;;;20.46;79.86;100350.91;146642;580;46014;-66
2023/06/12 04:44:48;;;;;;;;;9.00;8.00;;;;;20.51;79.93;100360.62;146639;639;45017;-66
2023/06/12 04:47:53;;;;;;;;;9.67;9.67;;;;;20.58;79.66;100358.91;146642;615;46010;-66
2023/06/12 04:50:55;;;;;;;;;8.00;8.00;;;;;20.63;79.65;100354.53;146641;575;45017;-66
2023/06/12 04:53:55;;;;;;;;;8.50;8.00;;;;;20.68;79.60;100362.44;146642;708;45020;-65
2023/06/12 04:56:58;;;;;;;;;9.50;7.50;;;;;18.38;77.51;99962.22;146640;563;45016;-65
2023/06/12 04:59:54;;;;;;;;;7.33;6.67;;;;;20.74;77.91;100363.34;146642;660;45021;-65
2023/06/12 05:02:49;;;;;;;;;10.00;9.25;;;;;20.83;78.07;100366.91;146638;588;46036;-64
2023/06/12 05:05:52;;;;;;;;;7.67;7.67;;;;;20.93;77.35;100366.06;146646;574;46010;-64
2023/06/12 05:08:49;;;;;;;;;8.00;7.67;;;;;21.00;77.64;100367.84;146635;597;45914;-65
2023/06/12 05:11:56;;;;;;;;;9.67;8.33;;;;;21.08;77.31;100367.88;146642;687;45010;-65
2023/06/12 05:14:50;;;;;;;;;8.00;8.00;;;;;21.13;76.59;100374.91;146641;571;45016;-65
2023/06/12 05:17:46;;;;;;;;;7.67;7.67;;;;;21.16;76.29;100364.38;146646;566;46010;-64
2023/06/12 05:20:58;;;;;;;;;10.00;10.00;;;;;21.19;75.88;100364.38;146637;617;46017;-64
2023/06/12 05:24:08;;;;;;;;;13.67;11.67;;;;;18.84;76.49;99959.88;146636;681;46010;-65
2023/06/12 05:27:03;;;;;;;;;6.67;6.67;;;;;21.35;79.96;100370.59;146703;578;47012;-64
2023/06/12 05:29:58;;;;;;;;;9.67;8.00;;;;;21.58;78.58;100372.37;146619;604;46016;-65
2023/06/12 05:33:13;;;;;;;;;6.67;6.67;;;;;20.55;75.25;100147.28;146624;571;46020;-63
2023/06/12 05:36:14;;;;;;;;;7.33;5.33;;;;;22.10;73.58;100373.25;146616;599;46016;-64
2023/06/12 05:39:11;;;;;;;;;7.33;7.33;;;;;22.29;72.42;100375.87;146623;605;47010;-64
2023/06/12 05:42:05;;;;;;;;;6.33;6.00;;;;;22.38;71.69;100381.16;146620;570;46012;-63
2023/06/12 05:45:20;;;;;;;;;10.00;6.33;;;;;22.45;71.33;100384.66;146615;617;47913;-64
2023/06/12 05:48:18;;;;;;;;;7.00;6.00;;;;;22.51;71.98;100382.84;146620;624;47017;-64
2023/06/12 05:51:24;;;;;;;;;6.00;5.33;;;;;22.66;71.93;100381.06;146620;569;46010;-64
2023/06/12 05:54:45;;;;;;;;;8.33;8.33;;;;;20.87;70.78;100055.97;146620;569;46012;-64
2023/06/12 05:57:44;;;;;;;;;9.33;7.00;;;;;22.79;70.83;100382.75;146622;584;47010;-64
2023/06/12 06:00:37;;;;;;;;;7.67;6.67;;;;;22.80;71.48;100380.13;146616;638;47016;-64
2023/06/12 06:03:34;;;;;;;;;40.75;34.50;;;;;22.78;71.84;100387.19;146619;634;47012;-63
2023/06/12 06:06:54;;;;;;;;;;;;;;;;;;;;;
2023/06/12 06:09:48;;;;;;;;;11.00;10.00;;;;;22.67;71.73;100385.47;146622;571;46020;-65
2023/06/12 06:12:46;;;;;;;;;9.00;8.67;;;;;22.63;72.45;100389.87;146611;624;46017;-64
2023/06/12 06:15:48;;;;;;;;;11.75;9.75;;;;;22.60;72.14;100390.75;146618;642;46010;-67
2023/06/12 06:19:02;;;;;;;;;8.00;8.00;;;;;21.29;71.75;100170.16;146615;577;46918;-66
2023/06/12 06:21:55;;;;;;;;;10.00;7.00;;;;;22.62;71.76;100406.63;146624;574;46010;-66
2023/06/12 06:25:00;;;;;;;;;8.67;8.33;;;;;22.65;71.35;100403.06;146618;586;46015;-66
2023/06/12 06:28:19;;;;;;;;;9.00;9.00;;;;;21.25;70.74;100163.13;146621;621;46020;-65
2023/06/12 06:31:14;;;;;;;;;12.50;9.75;;;;;22.68;70.73;100405.69;146614;589;46016;-65
2023/06/12 06:34:09;;;;;;;;;12.00;9.33;;;;;22.69;71.29;100404.84;146644;600;46010;-66
2023/06/12 06:37:14;;;;;;;;;10.00;7.67;;;;;22.70;70.88;100409.22;146619;652;46016;-66
2023/06/12 06:40:22;;;;;;;;;11.00;9.00;;;;;22.70;71.12;100402.19;146620;565;46020;-65
2023/06/12 06:43:22;;;;;;;;;11.75;10.00;;;;;22.69;72.19;100397.78;146618;590;46012;-66
2023/06/12 06:46:23;;;;;;;;;9.67;7.00;;;;;22.67;71.85;100399.53;146615;662;46010;-64
2023/06/12 06:49:37;;;;;;;;;9.25;7.00;;;;;22.64;71.31;100398.69;146617;704;46014;-66
2023/06/12 06:53:02;;;;;;;;;9.50;9.50;;;;;21.40;71.52;100186.88;146622;586;47010;-66
2023/06/12 06:56:17;;;;;;;;;10.00;8.33;;;;;22.64;70.58;100393.41;146618;606;47014;-66
2023/06/12 06:59:22;;;;;;;;;7.00;6.33;;;;;22.65;70.11;100388.12;146623;574;46010;-67
2023/06/12 07:02:38;;;;;;;;;8.00;8.00;;;;;22.72;69.90;100395.12;146616;615;46918;-66
2023/06/12 07:05:21;;;;;;;;;11.67;8.00;;;;;22.80;69.67;100390.69;146704;565;46013;-66
2023/06/12 07:08:14;;;;;;;;;12.67;8.67;;;;;22.93;69.84;100394.16;146619;621;47016;-65
2023/06/12 07:11:21;;;;;;;;;9.33;7.67;;;;;23.05;70.23;100395.88;146622;623;47010;-66
2023/06/12 07:14:27;;;;;;;;;11.33;9.67;;;;;23.18;69.43;100391.44;146619;611;46016;-66
2023/06/12 07:17:21;;;;;;;;;12.00;8.00;;;;;23.28;70.22;100394.00;146623;593;46020;-66
2023/06/12 07:20:29;;;;;;;;;9.33;8.00;;;;;23.40;69.76;100393.06;146614;607;47918;-66
2023/06/12 07:23:34;;;;;;;;;10.33;9.00;;;;;23.58;69.17;100394.69;146623;569;46020;-65
2023/06/12 07:26:37;;;;;;;;;9.00;8.67;;;;;23.82;69.71;100398.94;146613;566;46016;-65
2023/06/12 07:29:48;;;;;;;;;7.00;7.00;;;;;24.22;67.80;100392.41;146622;631;46021;-69
2023/06/12 07:32:51;;;;;;;;;6.00;5.00;;;;;24.52;64.95;100399.22;146615;569;47016;-67
2023/06/12 07:35:54;;;;;;;;;8.33;8.00;;;;;24.68;64.70;100392.81;146624;587;46010;-68
2023/06/12 07:38:39;;;;;;;;;7.33;7.33;;;;;24.78;64.86;100386.50;146705;575;46022;-68
2023/06/12 07:42:06;;;;;;;;;8.33;6.67;;;;;24.83;64.56;100389.13;146619;569;46943;-67
2023/06/12 07:45:06;;;;;;;;;9.00;7.00;;;;;24.92;61.65;100394.28;146619;596;46021;-67
2023/06/12 07:48:10;;;;;;;;;8.67;8.67;;;;;24.93;62.75;100388.09;146617;570;46014;-67
2023/06/12 07:51:13;;;;;;;;;7.33;7.33;;;;;24.92;63.28;100393.41;146621;573;46014;-67
2023/06/12 07:54:21;;;;;;;;;9.00;8.00;;;;;24.53;63.10;100327.59;146616;604;46023;-67
2023/06/12 07:57:22;;;;;;;;;8.67;8.33;;;;;25.00;61.42;100389.75;146625;587;46010;-67
2023/06/12 08:00:32;;;;;;;;;8.33;8.33;;;;;25.11;61.90;100395.81;146617;611;46017;-67
2023/06/12 08:03:29;;;;;;;;;9.67;7.33;;;;;25.19;62.93;100394.84;146621;575;46032;-68
2023/06/12 08:06:34;;;;;;;;;;;;;;;;;;;;;
2023/06/12 08:09:34;;;;;;;;;7.00;7.00;;;;;25.32;62.69;100392.00;146621;601;46020;-68
2023/06/12 08:12:38;;;;;;;;;7.00;7.00;;;;;25.47;63.16;100387.38;146617;599;47013;-68
2023/06/12 08:15:49;;;;;;;;;9.00;8.67;;;;;24.60;62.72;100206.47;146622;670;46916;-66
2023/06/12 08:18:57;;;;;;;;;8.00;8.00;;;;;25.84;61.61;100387.69;146616;596;47033;-67
2023/06/12 08:22:01;;;;;;;;;8.00;7.33;;;;;26.08;60.21;100386.37;146621;577;46021;-66
2023/06/12 08:24:56;;;;;;;;;9.00;9.00;;;;;26.31;57.87;100391.28;146618;610;47012;-65
2023/06/12 08:28:00;;;;;;;;;9.33;9.00;;;;;26.41;58.88;100386.66;146623;676;47010;-67
2023/06/12 08:31:09;;;;;;;;;8.33;8.33;;;;;26.58;59.04;100387.25;146618;592;46016;-66
2023/06/12 08:34:08;;;;;;;;;12.00;8.67;;;;;26.80;56.23;100387.69;146622;693;47020;-67
2023/06/12 08:37:03;;;;;;;;;11.25;9.00;;;;;26.87;56.27;100385.75;146614;588;47012;-68
2023/06/12 08:40:08;;;;;;;;;7.00;7.00;;;;;26.91;54.64;100390.97;146616;595;46020;-67
2023/06/12 08:43:04;;;;;;;;;9.00;8.00;;;;;26.91;56.75;100393.63;146616;685;46013;-68
2023/06/12 08:46:06;;;;;;;;;7.33;7.00;;;;;26.88;57.32;100380.41;146619;584;46020;-68
2023/06/12 08:49:11;;;;;;;;;9.00;7.67;;;;;26.76;57.46;100370.03;146613;578;46016;-67
2023/06/12 08:52:03;;;;;;;;;7.00;7.00;;;;;26.65;57.76;100375.56;146619;588;46010;-67
2023/06/12 08:55:02;;;;;;;;;7.67;7.33;;;;;26.67;59.27;100373.75;146615;604;46034;-66
2023/06/12 08:58:14;;;;;;;;;6.33;6.33;;;;;26.81;56.98;100370.81;146617;565;46021;-66
2023/06/12 09:01:18;;;;;;;;;7.33;5.00;;;;;26.90;55.80;100375.06;146612;573;46016;-69
2023/06/12 09:04:49;;;;;;;;;5.00;4.00;;;;;26.86;50.82;100362.75;146620;680;46021;-68
2023/06/12 09:08:00;;;;;;;;;2.33;2.33;;;;;26.70;54.86;100365.72;146611;570;47016;-68
2023/06/12 09:11:02;;;;;;;;;6.00;5.00;;;;;26.72;52.58;100363.00;146620;563;46020;-68
2023/06/12 09:14:03;;;;;;;;;6.33;6.00;;;;;26.70;51.77;100355.09;146611;569;46017;-69
2023/06/12 09:17:07;;;;;;;;;8.67;5.00;;;;;26.76;53.69;100358.50;146620;615;46020;-69
2023/06/12 09:20:05;;;;;;;;;3.00;3.00;;;;;26.78;51.70;100354.03;146616;603;46036;-69
2023/06/12 09:23:22;;;;;;;;;5.33;5.33;;;;;26.78;54.74;100351.38;146618;604;46039;-68
2023/06/12 09:26:39;;;;;;;;;7.00;5.67;;;;;26.83;54.82;100357.47;146611;569;47012;-68
2023/06/12 09:29:42;;;;;;;;;4.67;4.67;;;;;26.91;53.03;100355.50;146615;690;46010;-68
2023/06/12 09:33:05;;;;;;;;;7.00;5.00;;;;;26.93;55.22;100351.91;146610;575;47915;-69
2023/06/12 09:36:01;;;;;;;;;5.67;4.00;;;;;27.07;54.37;100359.63;146619;566;46010;-69
2023/06/12 09:39:10;;;;;;;;;;;;;;;;;;;;;
2023/06/12 09:42:21;;;;;;;;;;;;;;;;;;;;;
2023/06/12 09:45:29;;;;;;;;;4.00;4.00;;;;;27.68;52.16;100362.63;146640;577;46014;-68
2023/06/12 09:48:45;;;;;;;;;3.67;3.67;;;;;26.45;52.57;100133.16;146640;632;46010;-68
2023/06/12 09:52:11;;;;;;;;;6.33;5.33;;;;;27.70;52.44;100343.97;146641;595;45916;-69
2023/06/12 09:55:27;;;;;;;;;6.33;4.67;;;;;25.63;53.21;99977.34;146641;678;46010;-67
2023/06/12 09:58:28;;;;;;;;;4.00;4.00;;;;;27.85;51.71;100347.12;146640;658;45017;-67
2023/06/12 10:01:27;;;;;;;;;5.00;5.00;;;;;27.90;50.92;100347.00;146643;636;45010;-67
2023/06/12 10:04:50;;;;;;;;;8.00;6.00;;;;;25.79;52.67;100005.31;146643;580;46013;-68
2023/06/12 10:08:14;;;;;;;;;6.00;6.00;;;;;27.80;54.90;100342.84;146644;575;45010;-67
2023/06/12 10:11:30;;;;;;;;;4.33;4.33;;;;;27.68;49.51;100340.44;146639;614;46013;-70
2023/06/12 10:14:57;;;;;;;;;2.67;2.67;;;;;27.52;55.23;100329.31;146644;595;45022;-69
2023/06/12 10:17:53;;;;;;;;;7.00;7.00;;;;;27.48;51.38;100328.50;146641;676;45016;-69
2023/06/12 10:21:00;;;;;;;;;6.00;5.00;;;;;27.45;52.61;100344.56;146641;598;46010;-70
2023/06/12 10:23:58;;;;;;;;;8.67;7.00;;;;;27.47;53.50;100337.38;146639;588;45016;-69
2023/06/12 10:26:51;;;;;;;;;7.67;7.00;;;;;27.62;54.36;100339.66;146643;579;45011;-67
2023/06/12 10:29:44;;;;;;;;;6.33;5.67;;;;;27.69;54.80;100336.84;146640;604;45016;-70
2023/06/12 10:32:37;;;;;;;;;7.00;7.00;;;;;27.74;55.66;100334.97;146644;594;45020;-69
2023/06/12 10:35:36;;;;;;;;;2.00;2.00;;;;;27.73;55.44;100333.22;146639;651;46012;-69
2023/06/12 10:38:29;;;;;;;;;7.67;6.67;;;;;27.56;55.12;100322.97;146621;582;46020;-69
2023/06/12 10:41:34;;;;;;;;;7.00;7.00;;;;;27.26;56.88;100330.81;146617;591;46016;-68
2023/06/12 10:44:51;;;;;;;;;7.33;6.33;;;;;26.87;57.74;100321.91;146619;660;47014;-69
2023/06/12 10:48:17;;;;;;;;;;;;;;;;;;;;;
2023/06/12 10:51:33;;;;;;;;;6.00;6.00;;;;;26.35;57.66;100313.22;146620;640;48014;-69
2023/06/12 10:54:35;;;;;;;;;9.67;8.67;;;;;26.20;57.79;100310.84;146616;570;47012;-68
2023/06/12 10:57:42;;;;;;;;;8.33;7.33;;;;;26.15;57.87;100312.75;146622;609;46014;-70
2023/06/12 11:00:53;;;;;;;;;8.33;7.33;;;;;26.10;58.30;100304.84;146621;641;46916;-70
2023/06/12 11:04:12;;;;;;;;;9.67;8.67;;;;;23.96;59.28;99923.06;146625;672;46010;-68
2023/06/12 11:07:40;;;;;;;;;8.33;7.67;;;;;26.10;58.57;100283.59;146617;604;46018;-69
2023/06/12 11:10:45;;;;;;;;;8.00;6.67;;;;;26.19;58.19;100293.16;146623;608;46020;-68
2023/06/12 11:14:04;;;;;;;;;8.67;7.67;;;;;25.10;58.79;100093.38;146621;588;46016;-68
2023/06/12 11:17:38;;;;;;;;;7.00;7.00;;;;;26.15;56.70;100280.87;146623;566;46030;-69
2023/06/12 11:20:34;;;;;;;;;7.67;7.00;;;;;26.13;58.33;100272.91;146618;681;47014;-69
2023/06/12 11:23:45;;;;;;;;;10.00;10.00;;;;;26.13;58.77;100270.25;146622;579;46020;-68
2023/06/12 11:27:00;;;;;;;;;7.00;7.00;;;;;23.98;58.87;99897.41;146612;569;46017;-68
2023/06/12 11:29:58;;;;;;;;;8.00;8.00;;;;;26.11;59.12;100257.94;146623;579;46020;-68
2023/06/12 11:32:54;;;;;;;;;8.67;6.67;;;;;26.06;58.60;100263.31;146617;634;47013;-68
2023/06/12 11:36:14;;;;;;;;;8.00;8.00;;;;;26.01;59.49;100257.19;146623;635;47010;-69
2023/06/12 11:39:24;;;;;;;;;10.33;8.67;;;;;26.05;59.96;100252.72;146640;581;46012;-69
2023/06/12 11:42:25;;;;;;;;;9.00;9.00;;;;;26.14;59.92;100257.87;146644;629;45025;-69
2023/06/12 11:45:46;;;;;;;;;9.33;8.00;;;;;24.09;59.80;99846.06;146642;637;46916;-70
2023/06/12 11:48:44;;;;;;;;;9.67;7.67;;;;;26.65;57.67;100242.59;146645;569;46011;-69
2023/06/12 11:52:05;;;;;;;;;10.33;10.33;;;;;26.97;55.63;100227.66;146636;646;46014;-69
2023/06/12 11:55:24;;;;;;;;;7.33;7.00;;;;;27.24;55.97;100227.94;146636;624;46010;-69
2023/06/12 11:58:28;;;;;;;;;7.67;7.33;;;;;27.36;55.06;100233.84;146636;563;46016;-67
2023/06/12 12:01:25;;;;;;;;;7.00;7.00;;;;;27.42;54.56;100237.25;146641;569;45031;-67
2023/06/12 12:04:28;;;;;;;;;6.33;6.00;;;;;25.77;53.29;99967.28;146639;591;47012;-69
2023/06/12 12:07:34;;;;;;;;;5.00;5.00;;;;;27.34;50.44;100240.97;146645;686;45014;-69
2023/06/12 12:10:52;;;;;;;;;8.00;8.00;;;;;27.42;53.99;100219.50;146640;646;46013;-70
2023/06/12 12:14:17;;;;;;;;;5.00;5.00;;;;;25.12;51.57;99813.06;146646;614;46010;-68
2023/06/12 12:17:28;;;;;;;;;5.67;5.67;;;;;27.42;53.91;100218.62;146641;673;45012;-69
2023/06/12 12:20:25;;;;;;;;;5.67;4.00;;;;;27.21;49.05;100225.38;146642;601;45014;-69
2023/06/12 12:23:46;;;;;;;;;7.33;7.33;;;;;24.78;53.98;99829.72;146640;640;46012;-69
2023/06/12 12:26:47;;;;;;;;;6.00;6.00;;;;;26.90;49.02;100221.62;146644;583;45021;-69
2023/06/12 12:29:52;;;;;;;;;7.33;6.67;;;;;26.83;53.38;100209.38;146630;590;50925;-70
2023/06/12 12:33:22;;;;;;;;;6.33;4.33;;;;;24.23;53.24;99775.13;146645;591;45021;-68
2023/06/12 12:36:18;;;;;;;;;5.67;5.67;;;;;26.83;48.03;100203.19;146637;575;45912;-70
2023/06/12 12:39:21;;;;;;;;;6.33;5.00;;;;;27.00;44.56;100216.09;146622;586;46010;-69
2023/06/12 12:42:19;;;;;;;;;5.67;4.67;;;;;27.27;46.01;100222.56;146619;578;46016;-69
2023/06/12 12:45:18;;;;;;;;;7.67;6.00;;;;;27.54;42.59;100237.81;146627;635;46010;-68
2023/06/12 12:48:11;;;;;;;;;3.33;3.33;;;;;27.61;44.20;100228.75;146618;606;46017;-69
2023/06/12 12:51:11;;;;;;;;;7.00;7.00;;;;;27.61;44.61;100231.41;146620;606;46014;-69
2023/06/12 12:54:03;;;;;;;;;7.00;5.67;;;;;27.57;46.09;100224.41;146613;570;47015;-68
2023/06/12 12:57:10;;;;;;;;;5.67;5.67;;;;;27.50;51.53;100227.25;146620;604;46021;-68
2023/06/12 13:00:15;;;;;;;;;5.00;4.00;;;;;27.39;49.90;100228.44;146617;563;46014;-69
2023/06/12 13:03:26;;;;;;;;;4.00;4.00;;;;;27.34;50.42;100240.97;146620;571;47021;-69
2023/06/12 13:06:48;;;;;;;;;4.33;4.33;;;;;26.19;50.58;100035.41;146618;584;46016;-68
2023/06/12 13:09:45;;;;;;;;;8.00;5.00;;;;;27.34;46.17;100233.00;146621;572;46020;-68
2023/06/12 13:12:49;;;;;;;;;6.00;6.00;;;;;27.41;46.74;100247.00;146618;596;46913;-68
2023/06/12 13:15:52;;;;;;;;;5.67;4.67;;;;;27.41;46.40;100249.66;146620;641;47010;-69
2023/06/12 13:18:52;;;;;;;;;5.00;5.00;;;;;27.36;45.31;100239.16;146621;626;46012;-70
2023/06/12 13:21:59;;;;;;;;;;;;;;;;;;;;;
2023/06/12 13:24:53;;;;;;;;;4.67;4.67;;;;;27.07;49.36;100247.84;146618;646;46014;-69
2023/06/12 13:27:48;;;;;;;;;7.67;6.67;;;;;26.92;49.49;100245.56;146624;569;46029;-69
2023/06/12 13:30:47;;;;;;;;;4.33;4.33;;;;;26.77;49.14;100256.53;146617;622;46016;-69
2023/06/12 13:33:43;;;;;;;;;6.67;6.00;;;;;26.62;49.52;100255.97;146615;647;46020;-70
2023/06/12 13:36:45;;;;;;;;;8.67;6.33;;;;;26.46;49.41;100255.41;146618;629;46012;-69
2023/06/12 13:39:41;;;;;;;;;6.00;6.00;;;;;26.39;48.19;100237.84;146621;621;47010;-70
2023/06/12 13:42:49;;;;;;;;;;;;;;;;;;;;;
2023/06/12 13:45:57;;;;;;;;;6.67;6.00;;;;;26.34;52.71;100255.66;146620;592;47011;-68
2023/06/12 13:49:02;;;;;;;;;7.00;5.67;;;;;26.31;53.11;100247.75;146612;580;47014;-68
2023/06/12 13:52:18;;;;;;;;;6.67;5.00;;;;;26.30;52.95;100246.00;146619;621;46020;-68
2023/06/12 13:55:15;;;;;;;;;6.67;6.67;;;;;26.30;53.22;100250.44;146616;592;48012;-69
2023/06/12 13:58:16;;;;;;;;;6.00;6.00;;;;;26.29;53.30;100261.97;146624;564;46010;-68
2023/06/12 14:01:23;;;;;;;;;7.00;7.00;;;;;26.22;54.14;100262.09;146616;587;46016;-70
2023/06/12 14:04:33;;;;;;;;;8.33;7.67;;;;;26.13;53.98;100267.59;146621;598;47020;-69
2023/06/12 14:07:33;;;;;;;;;7.00;7.00;;;;;26.05;53.34;100264.22;146615;593;46017;-67
2023/06/12 14:10:29;;;;;;;;;7.00;6.00;;;;;25.99;53.79;100264.34;146621;598;47010;-68
2023/06/12 14:13:27;;;;;;;;;6.67;6.67;;;;;25.93;52.28;100267.13;146618;578;47012;-68
2023/06/12 14:16:20;;;;;;;;;7.00;7.00;;;;;25.88;52.21;100267.19;146616;635;46021;-68
2023/06/12 14:19:27;;;;;;;;;9.67;8.00;;;;;25.87;54.25;100273.41;146613;594;46016;-69
2023/06/12 14:22:40;;;;;;;;;8.33;7.00;;;;;25.86;53.19;100273.44;146622;584;46010;-69
2023/06/12 14:25:48;;;;;;;;;7.33;7.00;;;;;25.82;53.48;100277.94;146618;622;47012;-69
2023/06/12 14:28:55;;;;;;;;;8.33;8.33;;;;;25.82;53.33;100287.69;146622;570;47010;-69
2023/06/12 14:31:53;;;;;;;;;7.00;6.67;;;;;25.78;53.29;100278.88;146618;591;47017;-69
2023/06/12 14:35:03;;;;;;;;;7.33;7.00;;;;;25.82;52.88;100277.06;146614;611;46020;-69
2023/06/12 14:38:08;;;;;;;;;7.00;7.00;;;;;25.85;52.85;100277.00;146617;576;47014;-70
2023/06/12 14:41:15;;;;;;;;;8.00;7.00;;;;;24.68;51.97;100064.09;146618;593;47014;-69